createdAt,value
2023-08-18T00:01:58.872Z,17.08
2023-08-18T00:04:25.306Z,17.05
2023-08-18T00:06:51.834Z,17.03
2023-08-18T00:09:18.290Z,16.99
2023-08-18T00:11:44.823Z,16.97
2023-08-18T00:14:11.376Z,16.93
2023-08-18T00:16:37.898Z,16.91
2023-08-18T00:19:04.367Z,16.89
2023-08-18T00:21:30.878Z,16.84
2023-08-18T00:23:57.344Z,16.82
2023-08-18T00:26:24.022Z,16.80
2023-08-18T00:28:50.484Z,16.77
2023-08-18T00:31:17.015Z,16.77
2023-08-18T00:33:43.482Z,16.75
2023-08-18T00:36:09.882Z,16.74
2023-08-18T00:38:36.386Z,16.71
2023-08-18T00:41:02.812Z,16.70
2023-08-18T00:43:29.239Z,16.69
2023-08-18T00:45:56.736Z,16.68
2023-08-18T00:48:24.188Z,16.66
2023-08-18T00:50:52.189Z,16.60
2023-08-18T00:53:19.037Z,16.54
2023-08-18T00:55:48.141Z,16.51
2023-08-18T00:58:15.141Z,16.49
2023-08-18T01:00:42.573Z,16.46
2023-08-18T01:03:10.707Z,16.41
2023-08-18T01:05:37.307Z,16.38
2023-08-18T01:08:03.979Z,16.36
2023-08-18T01:10:33.573Z,16.34
2023-08-18T01:13:16.978Z,16.34
2023-08-18T01:15:46.110Z,16.33
2023-08-18T01:18:14.089Z,16.30
2023-08-18T01:20:41.390Z,16.30
2023-08-18T01:23:09.559Z,16.28
2023-08-18T01:25:36.174Z,16.25
2023-08-18T01:28:03.884Z,16.24
2023-08-18T01:30:39.228Z,16.19
2023-08-18T01:33:44.946Z,16.17
2023-08-18T01:36:20.076Z,16.15
2023-08-18T01:38:47.441Z,16.12
2023-08-18T01:41:18.214Z,16.07
2023-08-18T01:43:44.711Z,16.02
2023-08-18T01:46:11.181Z,16.02
2023-08-18T01:48:37.616Z,16.01
2023-08-18T01:51:04.070Z,15.95
2023-08-18T01:53:30.522Z,15.94
2023-08-18T01:56:00.558Z,15.90
2023-08-18T01:58:27.055Z,15.90
2023-08-18T02:00:56.201Z,15.90
2023-08-18T02:03:24.258Z,15.89
2023-08-18T02:05:54.029Z,15.85
2023-08-18T02:08:21.976Z,15.85
2023-08-18T02:10:48.456Z,15.82
2023-08-18T02:13:15.554Z,15.82
2023-08-18T02:15:42.062Z,15.81
2023-08-18T02:18:08.647Z,15.80
2023-08-18T02:20:37.504Z,15.79
2023-08-18T02:23:04.470Z,15.77
2023-08-18T02:25:30.922Z,15.77
2023-08-18T02:27:57.667Z,15.75
2023-08-18T02:30:24.123Z,15.73
2023-08-18T02:32:50.725Z,15.74
2023-08-18T02:35:17.268Z,15.73
2023-08-18T02:37:43.673Z,15.73
2023-08-18T02:40:10.407Z,15.72
2023-08-18T02:42:36.911Z,15.73
2023-08-18T02:45:04.061Z,15.75
2023-08-18T02:47:30.833Z,15.72
2023-08-18T02:49:57.629Z,15.69
2023-08-18T02:52:24.082Z,15.70
2023-08-18T02:54:50.572Z,15.68
2023-08-18T02:57:17.002Z,15.67
2023-08-18T02:59:43.537Z,15.67
2023-08-18T03:02:10.195Z,15.67
2023-08-18T03:04:36.795Z,15.67
2023-08-18T03:07:03.200Z,15.67
2023-08-18T03:09:29.657Z,15.66
2023-08-18T03:11:56.112Z,15.66
2023-08-18T03:14:22.997Z,15.65
2023-08-18T03:16:49.448Z,15.64
2023-08-18T03:19:15.979Z,15.64
2023-08-18T03:21:42.483Z,15.63
2023-08-18T03:24:08.977Z,15.62
2023-08-18T03:26:35.463Z,15.62
2023-08-18T03:29:01.899Z,15.62
2023-08-18T03:31:28.432Z,15.60
2023-08-18T03:33:54.974Z,15.59
2023-08-18T03:36:21.593Z,15.57
2023-08-18T03:38:48.039Z,15.57
2023-08-18T03:41:14.510Z,15.57
2023-08-18T03:43:41.256Z,15.57
2023-08-18T03:46:37.230Z,15.58
2023-08-18T03:49:06.964Z,15.58
2023-08-18T03:51:34.320Z,15.56
2023-08-18T03:54:00.818Z,15.55
2023-08-18T03:56:27.358Z,15.56
2023-08-18T03:58:54.127Z,15.57
2023-08-18T04:01:21.430Z,15.56
2023-08-18T04:03:49.909Z,15.56
2023-08-18T04:06:17.392Z,15.56
2023-08-18T04:08:45.204Z,15.56
2023-08-18T04:11:12.778Z,15.57
2023-08-18T04:13:40.041Z,15.57
2023-08-18T04:16:06.584Z,15.58
2023-08-18T04:18:33.119Z,15.58
2023-08-18T04:20:59.660Z,15.60
2023-08-18T04:23:26.175Z,15.60
2023-08-18T04:25:52.652Z,15.59
2023-08-18T04:28:19.064Z,15.59
2023-08-18T04:30:47.537Z,15.59
2023-08-18T04:33:14.222Z,15.61
2023-08-18T04:35:40.767Z,15.61
2023-08-18T04:38:08.477Z,15.62
2023-08-18T04:40:35.451Z,15.61
2023-08-18T04:43:03.132Z,15.60
2023-08-18T04:45:29.640Z,15.62
2023-08-18T04:47:59.236Z,15.64
2023-08-18T04:50:26.230Z,15.62
2023-08-18T04:52:52.734Z,15.63
2023-08-18T04:55:19.466Z,15.64
2023-08-18T04:57:45.850Z,15.66
2023-08-18T05:00:13.043Z,15.67
2023-08-18T05:02:39.551Z,15.69
2023-08-18T05:05:06.287Z,15.69
2023-08-18T05:07:33.887Z,15.72
2023-08-18T05:10:01.894Z,15.73
2023-08-18T05:12:28.442Z,15.75
2023-08-18T05:14:55.229Z,15.77
2023-08-18T05:17:21.696Z,15.79
2023-08-18T05:19:48.135Z,15.82
2023-08-18T05:22:14.531Z,15.84
2023-08-18T05:24:41.339Z,15.86
2023-08-18T05:27:07.741Z,15.88
2023-08-18T05:29:34.188Z,15.89
2023-08-18T05:32:00.618Z,15.92
2023-08-18T05:34:27.080Z,15.92
2023-08-18T05:36:55.089Z,15.95
2023-08-18T05:39:21.513Z,15.95
2023-08-18T05:41:48.105Z,15.96
2023-08-18T05:44:14.620Z,15.98
2023-08-18T05:46:41.749Z,15.99
2023-08-18T05:49:08.585Z,16.02
2023-08-18T05:51:35.040Z,16.05
2023-08-18T05:54:01.532Z,16.06
2023-08-18T05:56:28.147Z,16.07
2023-08-18T05:58:54.598Z,16.09
2023-08-18T06:01:21.097Z,16.15
2023-08-18T06:03:47.596Z,16.19
2023-08-18T06:06:14.123Z,16.27
2023-08-18T06:08:40.630Z,16.32
2023-08-18T06:11:07.102Z,16.38
2023-08-18T06:13:33.778Z,16.39
2023-08-18T06:16:05.097Z,16.41
2023-08-18T06:18:32.020Z,16.54
2023-08-18T06:20:58.595Z,16.70
2023-08-18T06:23:25.249Z,16.88
2023-08-18T06:25:51.689Z,17.00
2023-08-18T06:28:18.124Z,17.10
2023-08-18T06:30:44.627Z,17.29
2023-08-18T06:33:11.232Z,17.70
2023-08-18T06:35:37.670Z,18.16
2023-08-18T06:38:04.325Z,18.50
2023-08-18T06:40:30.741Z,19.00
2023-08-18T06:42:57.157Z,19.12
2023-08-18T06:45:23.599Z,19.50
2023-08-18T06:47:50.286Z,19.98
2023-08-18T06:50:16.899Z,19.67
2023-08-18T06:52:43.455Z,19.72
2023-08-18T06:55:19.692Z,20.01
2023-08-18T06:57:50.825Z,20.11
2023-08-18T07:00:21.735Z,20.21
2023-08-18T07:02:50.763Z,20.36
2023-08-18T07:05:21.020Z,20.65
2023-08-18T07:07:47.804Z,20.23
2023-08-18T07:10:14.296Z,20.44
2023-08-18T07:12:40.814Z,21.03
2023-08-18T07:15:07.564Z,21.42
2023-08-18T07:17:34.047Z,21.36
2023-08-18T07:20:00.592Z,21.50
2023-08-18T07:22:27.662Z,21.62
2023-08-18T07:24:54.363Z,21.15
2023-08-18T07:27:20.806Z,21.19
2023-08-18T07:29:47.250Z,21.31
2023-08-18T07:32:13.718Z,21.74
2023-08-18T07:34:40.184Z,21.21
2023-08-18T07:37:07.011Z,20.75
2023-08-18T07:39:33.532Z,20.62
2023-08-18T07:41:59.983Z,20.70
2023-08-18T07:44:26.823Z,20.71
2023-08-18T07:46:53.332Z,20.67
2023-08-18T07:49:19.939Z,20.46
2023-08-18T07:51:46.419Z,20.21
2023-08-18T07:54:12.863Z,20.01
2023-08-18T07:56:39.332Z,20.05
2023-08-18T07:59:05.902Z,20.09
2023-08-18T08:01:32.417Z,20.00
2023-08-18T08:04:00.491Z,19.82
2023-08-18T08:06:27.049Z,19.73
2023-08-18T08:08:53.478Z,19.69
2023-08-18T08:11:19.913Z,19.72
2023-08-18T08:13:46.638Z,19.71
2023-08-18T08:16:13.309Z,19.89
2023-08-18T08:18:39.922Z,20.03
2023-08-18T08:21:07.438Z,20.11
2023-08-18T08:23:33.924Z,20.05
2023-08-18T08:26:00.321Z,19.87
2023-08-18T08:28:28.772Z,19.79
2023-08-18T08:30:55.838Z,19.63
2023-08-18T08:33:23.050Z,19.73
2023-08-18T08:35:49.721Z,19.88
2023-08-18T08:38:16.279Z,20.04
2023-08-18T08:40:43.341Z,20.28
2023-08-18T08:43:10.518Z,20.44
2023-08-18T08:45:37.604Z,20.52
2023-08-18T08:48:07.626Z,20.63
2023-08-18T08:50:38.705Z,20.59
2023-08-18T08:53:07.612Z,20.54
2023-08-18T08:55:35.550Z,20.62
2023-08-18T08:58:03.213Z,20.66
2023-08-18T09:00:29.961Z,20.82
2023-08-18T09:03:01.768Z,20.81
2023-08-18T09:05:34.888Z,20.70
2023-08-18T09:08:01.920Z,20.79
2023-08-18T09:10:28.779Z,20.94
2023-08-18T09:12:55.862Z,21.14
2023-08-18T09:15:25.441Z,21.44
2023-08-18T09:17:52.531Z,21.79
2023-08-18T09:20:20.104Z,21.91
2023-08-18T09:22:46.722Z,21.82
2023-08-18T09:25:14.696Z,21.81
2023-08-18T09:27:41.259Z,21.73
2023-08-18T09:30:08.168Z,21.72
2023-08-18T09:32:37.213Z,21.72
2023-08-18T09:35:10.686Z,21.80
2023-08-18T09:37:38.274Z,21.82
2023-08-18T09:40:05.743Z,21.97
2023-08-18T09:42:32.631Z,22.09
2023-08-18T09:44:59.453Z,22.01
2023-08-18T09:47:30.527Z,22.00
2023-08-18T09:49:59.468Z,22.10
2023-08-18T09:52:27.385Z,22.02
2023-08-18T09:55:14.050Z,21.96
2023-08-18T09:57:48.882Z,21.85
2023-08-18T10:00:17.743Z,21.72
2023-08-18T10:02:45.487Z,21.95
2023-08-18T10:05:15.300Z,22.02
2023-08-18T10:07:42.146Z,21.99
2023-08-18T10:10:09.304Z,22.12
2023-08-18T10:12:35.761Z,22.19
2023-08-18T10:15:02.779Z,22.19
2023-08-18T10:17:29.373Z,22.09
2023-08-18T10:19:57.458Z,22.20
2023-08-18T10:22:26.843Z,22.26
2023-08-18T10:24:54.500Z,22.54
2023-08-18T10:27:30.003Z,22.51
2023-08-18T10:30:26.113Z,22.35
2023-08-18T10:32:53.517Z,22.30
2023-08-18T10:35:25.461Z,22.33
2023-08-18T10:37:59.496Z,22.64
2023-08-18T10:40:37.016Z,22.95
2023-08-18T10:43:15.163Z,23.20
2023-08-18T10:45:42.577Z,23.62
2023-08-18T10:48:14.365Z,23.90
2023-08-18T10:50:45.651Z,24.11
2023-08-18T10:53:14.474Z,23.88
2023-08-18T10:55:44.478Z,23.89
2023-08-18T10:58:12.079Z,24.08
2023-08-18T11:00:39.337Z,24.07
2023-08-18T11:03:07.637Z,24.24
2023-08-18T11:05:35.330Z,24.08
2023-08-18T11:08:02.767Z,24.08
2023-08-18T11:10:29.710Z,24.14
2023-08-18T11:12:58.695Z,24.25
2023-08-18T11:15:25.759Z,24.19
2023-08-18T11:17:53.334Z,24.01
2023-08-18T11:20:20.903Z,24.05
2023-08-18T11:22:53.204Z,24.25
2023-08-18T11:25:25.154Z,24.08
2023-08-18T11:27:54.290Z,24.00
2023-08-18T11:30:22.021Z,24.24
2023-08-18T11:32:49.203Z,24.23
2023-08-18T11:35:17.301Z,24.26
2023-08-18T11:37:48.428Z,24.31
2023-08-18T11:40:18.422Z,24.52
2023-08-18T11:42:47.053Z,24.80
2023-08-18T11:45:17.838Z,24.88
2023-08-18T11:47:45.594Z,24.91
2023-08-18T11:50:14.764Z,24.84
2023-08-18T11:52:43.375Z,24.77
2023-08-18T11:55:10.343Z,25.05
2023-08-18T11:57:41.601Z,25.27
2023-08-18T12:00:14.288Z,25.21
2023-08-18T12:02:48.005Z,25.39
2023-08-18T12:05:23.125Z,25.40
2023-08-18T12:07:53.905Z,25.29
2023-08-18T12:10:22.338Z,25.31
2023-08-18T12:12:52.512Z,25.49
2023-08-18T12:15:20.405Z,25.57
2023-08-18T12:17:46.884Z,25.73
2023-08-18T12:20:13.431Z,25.86
2023-08-18T12:22:40.281Z,25.61
2023-08-18T12:25:07.121Z,25.48
2023-08-18T12:27:35.350Z,25.75
2023-08-18T12:30:02.528Z,25.80
2023-08-18T12:32:31.218Z,25.85
2023-08-18T12:34:59.127Z,25.94
2023-08-18T12:37:29.505Z,26.31
2023-08-18T12:39:57.030Z,26.26
2023-08-18T12:42:24.817Z,26.31
2023-08-18T12:44:52.034Z,26.49
2023-08-18T12:47:18.788Z,26.83
2023-08-18T12:49:46.484Z,26.71
2023-08-18T12:52:14.436Z,26.76
2023-08-18T12:54:41.942Z,26.72
2023-08-18T12:57:09.053Z,26.93
2023-08-18T12:59:36.905Z,26.95
2023-08-18T13:02:05.143Z,27.11
2023-08-18T13:04:32.498Z,27.30
2023-08-18T13:06:59.348Z,27.36
2023-08-18T13:09:28.078Z,27.17
2023-08-18T13:11:57.847Z,27.06
2023-08-18T13:14:26.742Z,27.04
2023-08-18T13:16:58.987Z,26.97
2023-08-18T13:19:26.680Z,27.04
2023-08-18T13:21:58.166Z,27.02
2023-08-18T13:24:26.586Z,27.16
2023-08-18T13:26:53.903Z,27.33
2023-08-18T13:29:23.072Z,27.42
2023-08-18T13:31:53.632Z,27.68
2023-08-18T13:34:20.547Z,27.69
2023-08-18T13:36:47.261Z,27.50
2023-08-18T13:39:13.775Z,27.60
2023-08-18T13:41:40.182Z,27.80
2023-08-18T13:44:06.711Z,27.86
2023-08-18T13:46:33.562Z,28.18
2023-08-18T13:49:00.112Z,28.65
2023-08-18T13:51:26.746Z,28.76
2023-08-18T13:53:53.288Z,28.74
2023-08-18T13:56:19.816Z,28.72
2023-08-18T13:58:46.775Z,28.81
2023-08-18T14:01:13.320Z,29.05
2023-08-18T14:03:39.821Z,28.98
2023-08-18T14:06:06.306Z,28.66
2023-08-18T14:08:32.777Z,28.76
2023-08-18T14:10:59.378Z,28.93
2023-08-18T14:13:25.882Z,28.95
2023-08-18T14:15:52.359Z,29.05
2023-08-18T14:18:19.049Z,28.79
2023-08-18T14:20:45.762Z,28.60
2023-08-18T14:23:12.262Z,28.86
2023-08-18T14:25:40.259Z,29.13
2023-08-18T14:28:07.006Z,28.92
2023-08-18T14:30:33.442Z,28.94
2023-08-18T14:33:01.331Z,28.97
2023-08-18T14:35:27.813Z,28.70
2023-08-18T14:37:54.507Z,28.65
2023-08-18T14:40:21.047Z,28.69
2023-08-18T14:42:47.595Z,28.76
2023-08-18T14:45:14.072Z,28.90
2023-08-18T14:47:40.666Z,28.90
2023-08-18T14:50:10.000Z,28.62
2023-08-18T14:52:36.558Z,28.50
2023-08-18T14:55:03.647Z,28.63
2023-08-18T14:57:30.147Z,28.59
2023-08-18T14:59:56.620Z,28.30
2023-08-18T15:02:23.384Z,28.28
2023-08-18T15:04:49.836Z,28.15
2023-08-18T15:07:16.404Z,27.94
2023-08-18T15:09:42.918Z,27.81
2023-08-18T15:12:09.687Z,27.80
2023-08-18T15:14:37.959Z,28.02
2023-08-18T15:17:04.937Z,28.11
2023-08-18T15:19:31.478Z,27.93
2023-08-18T15:21:57.919Z,28.13
2023-08-18T15:24:24.416Z,28.29
2023-08-18T15:26:50.953Z,28.35
2023-08-18T15:29:17.438Z,28.23
2023-08-18T15:31:43.875Z,28.20
2023-08-18T15:34:10.411Z,28.16
2023-08-18T15:36:36.861Z,28.36
2023-08-18T15:39:06.448Z,28.57
2023-08-18T15:41:35.200Z,28.65
2023-08-18T15:44:02.322Z,28.80
2023-08-18T15:46:28.765Z,28.94
2023-08-18T15:48:55.470Z,28.91
2023-08-18T15:51:22.315Z,28.93
2023-08-18T15:53:48.828Z,29.06
2023-08-18T15:56:15.294Z,29.22
2023-08-18T15:58:41.878Z,29.30
2023-08-18T16:01:08.585Z,29.41
2023-08-18T16:03:35.374Z,29.42
2023-08-18T16:06:06.916Z,29.41
2023-08-18T16:08:35.392Z,29.16
2023-08-18T16:11:02.224Z,28.90
2023-08-18T16:13:28.739Z,28.65
2023-08-18T16:16:00.896Z,28.56
2023-08-18T16:18:28.500Z,28.58
2023-08-18T16:20:55.185Z,28.64
2023-08-18T16:23:21.783Z,28.54
2023-08-18T16:25:48.401Z,28.52
2023-08-18T16:28:15.591Z,28.62
2023-08-18T16:30:42.179Z,28.71
2023-08-18T16:33:08.851Z,29.08
2023-08-18T16:35:35.283Z,29.11
2023-08-18T16:38:03.597Z,28.91
2023-08-18T16:40:30.067Z,28.46
2023-08-18T16:42:58.253Z,28.29
2023-08-18T16:45:24.790Z,28.26
2023-08-18T16:47:51.469Z,28.27
2023-08-18T16:50:19.189Z,28.31
2023-08-18T16:52:47.478Z,28.04
2023-08-18T16:55:15.557Z,27.87
2023-08-18T16:57:42.156Z,27.77
2023-08-18T17:00:12.195Z,27.68
2023-08-18T17:02:38.932Z,27.69
2023-08-18T17:05:05.589Z,27.83
2023-08-18T17:07:32.321Z,27.83
2023-08-18T17:09:59.005Z,27.79
2023-08-18T17:12:25.500Z,27.86
2023-08-18T17:14:51.969Z,27.79
2023-08-18T17:17:18.495Z,27.83
2023-08-18T17:19:45.649Z,27.87
2023-08-18T17:22:12.194Z,27.84
2023-08-18T17:24:38.686Z,27.76
2023-08-18T17:27:05.416Z,27.85
2023-08-18T17:29:34.901Z,27.77
2023-08-18T17:32:04.081Z,27.67
2023-08-18T17:34:30.739Z,27.57
2023-08-18T17:36:57.373Z,27.33
2023-08-18T17:39:24.904Z,27.06
2023-08-18T17:41:51.382Z,26.97
2023-08-18T17:44:17.896Z,26.88
2023-08-18T17:46:44.423Z,26.77
2023-08-18T17:49:10.827Z,26.66
2023-08-18T17:51:37.309Z,26.57
2023-08-18T17:54:03.814Z,26.53
2023-08-18T17:56:30.368Z,26.52
2023-08-18T17:58:56.829Z,26.44
2023-08-18T18:01:23.646Z,26.33
2023-08-18T18:03:50.353Z,26.17
2023-08-18T18:06:16.999Z,26.07
2023-08-18T18:08:43.486Z,25.93
2023-08-18T18:11:09.981Z,25.85
2023-08-18T18:13:36.779Z,25.78
2023-08-18T18:16:03.633Z,25.71
2023-08-18T18:18:30.380Z,25.59
2023-08-18T18:20:56.896Z,25.49
2023-08-18T18:23:23.340Z,25.39
2023-08-18T18:25:50.013Z,25.25
2023-08-18T18:28:16.513Z,25.13
2023-08-18T18:30:43.359Z,25.07
2023-08-18T18:33:09.873Z,25.02
2023-08-18T18:35:36.375Z,25.02
2023-08-18T18:38:04.929Z,24.98
2023-08-18T18:40:33.177Z,24.88
2023-08-18T18:42:59.700Z,24.77
2023-08-18T18:45:26.169Z,24.63
2023-08-18T18:47:52.640Z,24.53
2023-08-18T18:50:19.232Z,24.42
2023-08-18T18:52:46.143Z,24.33
2023-08-18T18:55:12.626Z,24.25
2023-08-18T18:57:40.066Z,24.19
2023-08-18T19:00:08.066Z,24.12
2023-08-18T19:02:35.617Z,24.08
2023-08-18T19:05:02.301Z,23.99
2023-08-18T19:07:28.824Z,23.91
2023-08-18T19:09:55.260Z,23.90
2023-08-18T19:12:21.789Z,23.90
2023-08-18T19:14:48.640Z,23.88
2023-08-18T19:17:15.372Z,23.80
2023-08-18T19:19:41.841Z,23.76
2023-08-18T19:22:08.354Z,23.72
2023-08-18T19:24:41.304Z,23.63
2023-08-18T19:27:08.223Z,23.53
2023-08-18T19:29:36.222Z,23.43
2023-08-18T19:32:06.834Z,23.40
2023-08-18T19:34:34.355Z,23.41
2023-08-18T19:37:00.948Z,23.39
2023-08-18T19:39:29.370Z,23.31
2023-08-18T19:41:55.841Z,23.28
2023-08-18T19:44:22.456Z,23.27
2023-08-18T19:46:49.021Z,23.29
2023-08-18T19:49:15.573Z,23.29
2023-08-18T19:51:42.031Z,23.26
2023-08-18T19:54:09.092Z,23.12
2023-08-18T19:56:35.915Z,22.95
2023-08-18T19:59:02.572Z,22.80
2023-08-18T20:01:29.214Z,22.64
2023-08-18T20:03:55.780Z,22.50
2023-08-18T20:06:22.416Z,22.40
2023-08-18T20:08:49.093Z,22.36
2023-08-18T20:11:15.600Z,22.34
2023-08-18T20:13:42.027Z,22.32
2023-08-18T20:16:08.472Z,22.23
2023-08-18T20:18:34.906Z,22.15
2023-08-18T20:21:01.402Z,22.10
2023-08-18T20:23:28.089Z,22.07
2023-08-18T20:26:04.369Z,22.05
2023-08-18T20:28:30.975Z,22.03
2023-08-18T20:30:58.139Z,22.00
2023-08-18T20:33:25.585Z,21.98
2023-08-18T20:35:52.027Z,21.98
2023-08-18T20:38:19.610Z,21.98
2023-08-18T20:40:46.120Z,21.98
2023-08-18T20:43:12.699Z,22.00
2023-08-18T20:45:39.170Z,22.00
2023-08-18T20:48:05.973Z,21.97
2023-08-18T20:50:32.914Z,21.94
2023-08-18T20:52:59.620Z,21.90
2023-08-18T20:55:28.621Z,21.87
2023-08-18T20:57:55.353Z,21.86
2023-08-18T21:00:22.095Z,21.86
2023-08-18T21:02:48.665Z,21.80
2023-08-18T21:05:15.232Z,21.73
2023-08-18T21:07:41.780Z,21.67
2023-08-18T21:10:12.382Z,21.68
2023-08-18T21:12:44.475Z,21.67
2023-08-18T21:15:11.701Z,21.67
2023-08-18T21:17:38.677Z,21.65
2023-08-18T21:20:06.625Z,21.61
2023-08-18T21:22:38.792Z,21.56
2023-08-18T21:25:06.727Z,21.49
2023-08-18T21:27:33.372Z,21.49
2023-08-18T21:30:00.582Z,21.48
2023-08-18T21:32:27.347Z,21.53
2023-08-18T21:34:53.820Z,21.58
2023-08-18T21:37:20.446Z,21.56
2023-08-18T21:39:47.382Z,21.51
2023-08-18T21:42:14.142Z,21.53
2023-08-18T21:44:40.653Z,21.60
2023-08-18T21:47:07.145Z,21.64
2023-08-18T21:49:33.583Z,21.67
2023-08-18T21:52:00.043Z,21.70
2023-08-18T21:54:27.603Z,21.72
2023-08-18T21:56:55.975Z,21.72
2023-08-18T21:59:22.625Z,21.69
2023-08-18T22:01:49.111Z,21.67
2023-08-18T22:04:15.613Z,21.63
2023-08-18T22:06:42.048Z,21.63
2023-08-18T22:09:08.632Z,21.62
2023-08-18T22:11:35.167Z,21.61
2023-08-18T22:14:01.728Z,21.57
2023-08-18T22:16:28.231Z,21.56
2023-08-18T22:18:54.713Z,21.54
2023-08-18T22:21:21.182Z,21.48
2023-08-18T22:23:47.629Z,21.47
2023-08-18T22:26:15.365Z,21.45
2023-08-18T22:28:41.806Z,21.46
2023-08-18T22:31:08.383Z,21.44
2023-08-18T22:33:34.897Z,21.45
2023-08-18T22:36:01.476Z,21.42
2023-08-18T22:38:28.168Z,21.40
2023-08-18T22:41:01.520Z,21.41
2023-08-18T22:43:28.704Z,21.39
2023-08-18T22:45:55.519Z,21.39
2023-08-18T22:48:23.252Z,21.39
2023-08-18T22:50:50.304Z,21.37
2023-08-18T22:53:17.279Z,21.41
2023-08-18T22:55:44.119Z,21.42
2023-08-18T22:58:10.571Z,21.44
2023-08-18T23:00:37.022Z,21.42
2023-08-18T23:03:04.373Z,21.45
2023-08-18T23:05:30.834Z,21.46
2023-08-18T23:07:57.293Z,21.46
2023-08-18T23:10:23.750Z,21.46
2023-08-18T23:12:50.185Z,21.47
2023-08-18T23:15:19.602Z,21.49
2023-08-18T23:17:46.107Z,21.49
2023-08-18T23:20:13.876Z,21.52
2023-08-18T23:22:40.387Z,21.54
2023-08-18T23:25:08.698Z,21.55
2023-08-18T23:27:35.214Z,21.53
2023-08-18T23:30:02.021Z,21.51
2023-08-18T23:32:28.800Z,21.52
2023-08-18T23:34:55.528Z,21.52
2023-08-18T23:37:22.261Z,21.50
2023-08-18T23:39:48.714Z,21.49
2023-08-18T23:42:15.954Z,21.52
2023-08-18T23:44:42.387Z,21.58
2023-08-18T23:47:08.873Z,21.62
2023-08-18T23:49:38.696Z,21.63
2023-08-18T23:52:05.146Z,21.60
2023-08-18T23:54:31.593Z,21.58
2023-08-18T23:56:58.149Z,21.56
2023-08-18T23:59:24.682Z,21.55
